LIPA METAR and TAF | Updated Today

LIPA METAR

Aviano Air Base

Aviano Air Base (LIPA) hasn't published a METAR.
We found the following current weather conditions for Roiata from other sources.

Aviano Air Base (LIPA) METAR

  • Weather conditions right now at LIPA:
  • Present conditions: Clouds
  • Clouds: Overcast clouds
  • Cloud cover: 100%
  • Wind: 34 at 2kts
  • Temperature: 15.8 celsius
  • Feels like: 15.4 celsius
  • Pressure: 1008mb
  • Humidity: 75%


Useful to know...

LIPA TAF

Aviano Air Base

TAF LIPA 271700Z 2718/2803 20010KT 9999 FEW040 SCT090 TEMPO 2721/2803 01010KT 5000 TSRA FEW030CB SCT040
Observation time: 42:09 hr. ago
Need help? Read our tutorial on how to read TAFs or read the parsed version below.

Parsed version of TAF for Aviano Air Base (LIPA)

  • From 27 May at 18:00 UTC, to day 28 of the month at 03:00 UTC
  • Clouds: A few at 1219 meters; scattered at 2743 meters
  • Visibility: Greater than 10 km
  • Wind: 200 degrees at 10
  • Expected to arise temporarily, from 27 May at 21:00 UTC, to day 28 of the month at 03:00 UTC
  • Clouds: A few at 914 meters, cumulonimbus; scattered at 1219 meters
  • Visibility: 5000 meters
  • Wind: 10 degrees at 10
  • Other: Thunderstorms rain